createdAt,value
2019-03-25T00:01:20.128Z,98324.37
2019-03-25T00:03:52.693Z,98332.66
2019-03-25T00:06:25.224Z,98332.66
2019-03-25T00:09:04.841Z,98327.69
2019-03-25T00:11:31.922Z,98324.92
2019-03-25T00:14:04.393Z,98323.55
2019-03-25T00:16:37.004Z,98318.02
2019-03-25T00:19:09.642Z,98319.73
2019-03-25T00:21:42.174Z,98323.55
2019-03-25T00:24:14.696Z,98330.18
2019-03-25T00:26:47.284Z,98326.63
2019-03-25T00:29:19.944Z,98331.33
2019-03-25T00:31:52.500Z,98335.15
2019-03-25T00:34:25.193Z,98335.47
2019-03-25T00:36:57.740Z,98334.09
2019-03-25T00:39:30.474Z,98338.87
2019-03-25T00:42:03.034Z,98328.89
2019-03-25T00:44:35.711Z,98326.13
2019-03-25T00:47:08.445Z,98325.86
2019-03-25T00:49:41.080Z,98329.50
2019-03-25T00:52:13.666Z,98319.05
2019-03-25T00:54:50.247Z,98318.17
2019-03-25T00:57:20.814Z,98314.91
2019-03-25T00:59:53.654Z,98313.77
2019-03-25T01:02:26.216Z,98308.80
2019-03-25T01:04:58.995Z,98313.53
2019-03-25T01:07:31.481Z,98318.22
2019-03-25T01:10:06.877Z,98310.50
2019-03-25T01:12:39.505Z,98308.00
2019-03-25T01:15:12.173Z,98303.59
2019-03-25T01:17:45.199Z,98307.18
2019-03-25T01:20:17.943Z,98308.30
2019-03-25T01:22:50.483Z,98300.02
2019-03-25T01:25:23.002Z,98303.54
2019-03-25T01:27:55.790Z,98303.86
2019-03-25T01:30:28.416Z,98298.34
2019-03-25T01:33:00.939Z,98301.10
2019-03-25T01:35:33.406Z,98292.81
2019-03-25T01:38:05.992Z,98287.30
2019-03-25T01:40:38.451Z,98288.67
2019-03-25T01:43:10.919Z,98288.41
2019-03-25T01:45:43.382Z,98290.05
2019-03-25T01:48:15.886Z,98288.41
2019-03-25T01:50:48.387Z,98286.20
2019-03-25T01:53:20.961Z,98293.94
2019-03-25T01:55:53.563Z,98283.77
2019-03-25T01:58:26.136Z,98286.80
2019-03-25T02:00:58.613Z,98284.03
2019-03-25T02:03:31.118Z,98288.73
2019-03-25T02:06:03.729Z,98282.98
2019-03-25T02:08:36.299Z,98286.30
2019-03-25T02:11:08.994Z,98281.89
2019-03-25T02:13:41.544Z,98290.44
2019-03-25T02:16:14.219Z,98283.53
2019-03-25T02:18:46.808Z,98281.66
2019-03-25T02:21:19.441Z,98286.12
2019-03-25T02:23:52.033Z,98286.67
2019-03-25T02:26:24.616Z,98281.39
2019-03-25T02:28:57.183Z,98288.05
2019-03-25T02:31:29.770Z,98286.67
2019-03-25T02:34:02.383Z,98284.47
2019-03-25T02:36:35.116Z,98286.12
2019-03-25T02:39:07.642Z,98282.86
2019-03-25T02:41:40.221Z,98280.66
2019-03-25T02:44:12.778Z,98280.42
2019-03-25T02:46:45.401Z,98287.55
2019-03-25T02:49:17.918Z,98280.09
2019-03-25T02:51:50.380Z,98284.80
2019-03-25T02:54:24.434Z,98284.56
2019-03-25T02:56:56.865Z,98286.81
2019-03-25T02:59:29.489Z,98286.81
2019-03-25T03:02:02.172Z,98288.44
2019-03-25T03:04:34.715Z,98287.05
2019-03-25T03:07:07.337Z,98286.55
2019-03-25T03:09:39.907Z,98292.34
2019-03-25T03:12:12.558Z,98289.81
2019-03-25T03:14:45.103Z,98288.44
2019-03-25T03:17:17.726Z,98296.72
2019-03-25T03:19:50.359Z,98296.66
2019-03-25T03:22:23.156Z,98298.83
2019-03-25T03:24:55.827Z,98298.59
2019-03-25T03:27:29.888Z,98298.36
2019-03-25T03:30:02.469Z,98293.95
2019-03-25T03:32:35.435Z,98295.89
2019-03-25T03:35:08.042Z,98299.74
2019-03-25T03:37:40.673Z,98292.58
2019-03-25T03:40:13.149Z,98289.26
2019-03-25T03:42:45.866Z,98295.89
2019-03-25T03:45:18.754Z,98293.14
2019-03-25T03:47:51.543Z,98295.21
2019-03-25T03:50:25.439Z,98307.39
2019-03-25T03:52:58.737Z,98298.97
2019-03-25T03:55:31.721Z,98310.44
2019-03-25T03:58:04.404Z,98302.72
2019-03-25T04:00:36.985Z,98308.77
2019-03-25T04:03:09.506Z,98308.13
2019-03-25T04:05:42.095Z,98311.59
2019-03-25T04:08:14.749Z,98306.34
2019-03-25T04:10:47.571Z,98311.23
2019-03-25T04:13:20.190Z,98312.25
2019-03-25T04:15:52.710Z,98315.00
2019-03-25T04:18:25.545Z,98320.47
2019-03-25T04:20:58.238Z,98321.58
2019-03-25T04:23:31.094Z,98317.44
2019-03-25T04:26:03.632Z,98316.33
2019-03-25T04:28:36.280Z,98319.63
2019-03-25T04:31:08.958Z,98315.31
2019-03-25T04:33:41.576Z,98314.92
2019-03-25T04:36:14.299Z,98308.10
2019-03-25T04:38:47.073Z,98305.02
2019-03-25T04:41:19.861Z,98311.14
2019-03-25T04:43:54.456Z,98308.48
2019-03-25T04:46:26.980Z,98307.08
2019-03-25T04:48:59.545Z,98305.22
2019-03-25T04:51:32.153Z,98298.07
2019-03-25T04:54:04.933Z,98298.27
2019-03-25T04:56:39.835Z,98303.63
2019-03-25T04:59:12.113Z,98299.72
2019-03-25T05:01:44.669Z,98304.53
2019-03-25T05:04:17.098Z,98303.61
2019-03-25T05:06:50.688Z,98298.84
2019-03-25T05:09:25.793Z,98304.23
2019-03-25T05:11:58.246Z,98302.23
2019-03-25T05:14:30.768Z,98303.75
2019-03-25T05:17:03.313Z,98302.55
2019-03-25T05:19:35.799Z,98300.11
2019-03-25T05:22:08.299Z,98299.59
2019-03-25T05:24:41.052Z,98287.70
2019-03-25T05:27:13.629Z,98292.84
2019-03-25T05:29:46.103Z,98293.08
2019-03-25T05:32:18.776Z,98292.88
2019-03-25T05:34:51.257Z,98290.55
2019-03-25T05:37:23.774Z,98287.15
2019-03-25T05:39:56.417Z,98287.65
2019-03-25T05:42:28.853Z,98290.03
2019-03-25T05:45:01.524Z,98291.08
2019-03-25T05:47:34.047Z,98291.58
2019-03-25T05:50:09.034Z,98292.91
2019-03-25T05:52:41.955Z,98290.14
2019-03-25T05:55:14.544Z,98296.95
2019-03-25T05:57:47.215Z,98296.90
2019-03-25T06:00:22.317Z,98295.25
2019-03-25T06:02:54.842Z,98294.64
2019-03-25T06:05:27.428Z,98297.62
2019-03-25T06:08:00.081Z,98297.90
2019-03-25T06:10:32.577Z,98294.25
2019-03-25T06:13:05.241Z,98290.34
2019-03-25T06:15:38.126Z,98292.78
2019-03-25T06:18:10.849Z,98294.25
2019-03-25T06:20:43.391Z,98294.59
2019-03-25T06:23:15.983Z,98298.42
2019-03-25T06:25:48.646Z,98299.06
2019-03-25T06:28:21.344Z,98304.00
2019-03-25T06:30:53.947Z,98294.33
2019-03-25T06:33:26.460Z,98303.45
2019-03-25T06:35:59.149Z,98295.42
2019-03-25T06:38:31.727Z,98292.56
2019-03-25T06:41:04.610Z,98288.19
2019-03-25T06:43:37.226Z,98288.42
2019-03-25T06:46:09.975Z,98293.33
2019-03-25T06:48:42.711Z,98292.56
2019-03-25T06:51:15.244Z,98292.73
2019-03-25T06:53:47.909Z,98294.70
2019-03-25T06:56:20.590Z,98300.47
2019-03-25T06:58:53.180Z,98298.20
2019-03-25T07:01:25.749Z,98295.67
2019-03-25T07:03:58.258Z,98299.02
2019-03-25T07:06:31.104Z,98293.17
2019-03-25T07:09:05.129Z,98293.50
2019-03-25T07:11:37.707Z,98304.38
2019-03-25T07:14:10.345Z,98296.59
2019-03-25T07:16:42.868Z,98307.80
2019-03-25T07:19:15.270Z,98316.08
2019-03-25T07:21:49.550Z,98316.73
2019-03-25T07:24:22.090Z,98309.06
2019-03-25T07:26:55.639Z,98311.09
2019-03-25T07:29:28.400Z,98309.48
2019-03-25T07:32:00.926Z,98310.65
2019-03-25T07:34:33.768Z,98307.09
2019-03-25T07:37:06.377Z,98304.89
2019-03-25T07:39:38.831Z,98315.12
2019-03-25T07:42:11.401Z,98314.38
2019-03-25T07:44:43.786Z,98313.56
2019-03-25T07:47:16.444Z,98313.56
2019-03-25T07:49:48.964Z,98306.09
2019-03-25T07:52:21.508Z,98309.73
2019-03-25T07:54:54.250Z,98312.50
2019-03-25T07:57:26.964Z,98309.18
2019-03-25T07:59:59.432Z,98302.34
2019-03-25T08:02:32.018Z,98308.97
2019-03-25T08:05:06.042Z,98302.34
2019-03-25T08:07:38.601Z,98307.59
2019-03-25T08:10:11.465Z,98303.77
2019-03-25T08:12:44.175Z,98303.77
2019-03-25T08:15:16.620Z,98308.50
2019-03-25T08:17:49.042Z,98300.69
2019-03-25T08:20:21.570Z,98305.74
2019-03-25T08:22:54.260Z,98303.77
2019-03-25T08:25:26.823Z,98299.72
2019-03-25T08:28:00.492Z,98293.31
2019-03-25T08:30:33.274Z,98289.17
2019-03-25T08:33:05.735Z,98290.30
2019-03-25T08:35:38.277Z,98288.67
2019-03-25T08:38:10.961Z,98291.44
2019-03-25T08:40:43.540Z,98288.91
2019-03-25T08:43:16.223Z,98291.17
2019-03-25T08:45:48.692Z,98292.81
2019-03-25T08:48:21.245Z,98290.30
2019-03-25T08:50:54.152Z,98285.59
2019-03-25T08:53:26.729Z,98293.37
2019-03-25T08:55:59.203Z,98290.30
2019-03-25T08:58:31.896Z,98290.62
2019-03-25T09:01:04.386Z,98287.30
2019-03-25T09:03:37.041Z,98283.39
2019-03-25T09:06:09.624Z,98286.80
2019-03-25T09:08:42.298Z,98284.83
2019-03-25T09:11:14.796Z,98283.22
2019-03-25T09:13:47.246Z,98281.51
2019-03-25T09:16:19.949Z,98278.52
2019-03-25T09:18:52.467Z,98277.63
2019-03-25T09:21:24.859Z,98279.89
2019-03-25T09:23:57.976Z,98277.13
2019-03-25T09:26:30.542Z,98269.73
2019-03-25T09:29:02.976Z,98272.73
2019-03-25T09:31:36.995Z,98271.02
2019-03-25T09:34:09.796Z,98275.16
2019-03-25T09:36:42.435Z,98259.42
2019-03-25T09:39:14.876Z,98256.10
2019-03-25T09:41:47.752Z,98249.44
2019-03-25T09:44:20.239Z,98254.17
2019-03-25T09:46:52.974Z,98247.50
2019-03-25T09:49:25.481Z,98242.23
2019-03-25T09:51:57.959Z,98242.23
2019-03-25T09:54:30.446Z,98238.33
2019-03-25T09:57:03.010Z,98241.41
2019-03-25T09:59:35.587Z,98236.95
2019-03-25T10:02:08.064Z,98239.72
2019-03-25T10:04:40.742Z,98241.91
2019-03-25T10:07:16.390Z,98244.59
2019-03-25T10:09:49.002Z,98245.00
2019-03-25T10:12:21.799Z,98230.28
2019-03-25T10:14:54.709Z,98232.81
2019-03-25T10:17:27.263Z,98234.19
2019-03-25T10:20:00.440Z,98236.72
2019-03-25T10:22:33.090Z,98227.61
2019-03-25T10:25:07.768Z,98229.31
2019-03-25T10:27:40.380Z,98230.11
2019-03-25T10:30:15.323Z,98221.27
2019-03-25T10:32:48.229Z,98224.03
2019-03-25T10:35:20.824Z,98222.15
2019-03-25T10:37:53.452Z,98218.27
2019-03-25T10:40:26.028Z,98212.98
2019-03-25T10:42:58.598Z,98221.27
2019-03-25T10:45:31.319Z,98215.75
2019-03-25T10:48:03.866Z,98218.51
2019-03-25T10:50:36.615Z,98216.01
2019-03-25T10:53:09.823Z,98212.98
2019-03-25T10:55:42.476Z,98218.27
2019-03-25T10:58:15.358Z,98209.41
2019-03-25T11:00:48.019Z,98212.98
2019-03-25T11:03:21.004Z,98211.87
2019-03-25T11:05:53.644Z,98210.22
2019-03-25T11:08:26.277Z,98203.09
2019-03-25T11:10:58.899Z,98200.33
2019-03-25T11:13:31.492Z,98206.58
2019-03-25T11:16:04.064Z,98203.76
2019-03-25T11:18:36.552Z,98209.34
2019-03-25T11:21:09.172Z,98212.43
2019-03-25T11:23:42.011Z,98209.34
2019-03-25T11:26:14.740Z,98211.28
2019-03-25T11:28:47.345Z,98211.87
2019-03-25T11:31:19.946Z,98206.81
2019-03-25T11:33:52.616Z,98215.75
2019-03-25T11:36:25.623Z,98209.90
2019-03-25T11:38:58.283Z,98202.77
2019-03-25T11:41:30.935Z,98205.84
2019-03-25T11:44:03.398Z,98204.38
2019-03-25T11:46:36.168Z,98210.48
2019-03-25T11:49:08.805Z,98212.10
2019-03-25T11:51:41.628Z,98213.81
2019-03-25T11:54:14.500Z,98208.84
2019-03-25T11:56:47.115Z,98213.63
2019-03-25T11:59:19.677Z,98216.89
2019-03-25T12:01:52.407Z,98210.61
2019-03-25T12:04:24.906Z,98210.61
2019-03-25T12:06:57.411Z,98208.84
2019-03-25T12:09:30.054Z,98208.02
2019-03-25T12:12:02.687Z,98209.84
2019-03-25T12:14:35.406Z,98205.64
2019-03-25T12:17:08.039Z,98208.40
2019-03-25T12:19:40.815Z,98207.74
2019-03-25T12:22:13.402Z,98204.48
2019-03-25T12:24:45.833Z,98196.38
2019-03-25T12:27:18.595Z,98203.05
2019-03-25T12:29:51.106Z,98201.28
2019-03-25T12:32:23.736Z,98194.11
2019-03-25T12:34:56.583Z,98191.52
2019-03-25T12:37:29.192Z,98196.72
2019-03-25T12:40:01.711Z,98204.38
2019-03-25T12:42:34.273Z,98200.23
2019-03-25T12:45:08.441Z,98203.88
2019-03-25T12:47:41.029Z,98205.98
2019-03-25T12:50:13.637Z,98207.14
2019-03-25T12:52:46.497Z,98205.43
2019-03-25T12:55:19.690Z,98216.48
2019-03-25T12:57:58.451Z,98211.28
2019-03-25T13:00:39.964Z,98209.64
2019-03-25T13:03:12.916Z,98220.19
2019-03-25T13:05:45.437Z,98213.48
2019-03-25T13:08:18.678Z,98209.91
2019-03-25T13:10:51.284Z,98225.59
2019-03-25T13:13:24.034Z,98214.70
2019-03-25T13:15:56.695Z,98215.59
2019-03-25T13:18:29.181Z,98217.13
2019-03-25T13:21:01.847Z,98219.39
2019-03-25T13:23:34.431Z,98212.23
2019-03-25T13:26:06.950Z,98212.49
2019-03-25T13:28:39.529Z,98214.44
2019-03-25T13:31:12.291Z,98216.31
2019-03-25T13:33:44.987Z,98215.81
2019-03-25T13:36:17.715Z,98213.88
2019-03-25T13:38:50.226Z,98226.36
2019-03-25T13:41:22.645Z,98215.48
2019-03-25T13:43:55.271Z,98222.72
2019-03-25T13:46:27.844Z,98218.25
2019-03-25T13:49:00.400Z,98211.34
2019-03-25T13:51:33.105Z,98228.80
2019-03-25T13:54:06.979Z,98222.22
2019-03-25T13:56:39.897Z,98221.11
2019-03-25T13:59:12.471Z,98215.88
2019-03-25T14:01:45.052Z,98227.02
2019-03-25T14:04:17.956Z,98226.13
2019-03-25T14:06:50.639Z,98230.27
2019-03-25T14:09:23.500Z,98227.75
2019-03-25T14:11:56.270Z,98222.22
2019-03-25T14:14:28.824Z,98229.69
2019-03-25T14:17:01.321Z,98226.42
2019-03-25T14:19:33.870Z,98231.16
2019-03-25T14:22:06.371Z,98221.78
2019-03-25T14:24:38.921Z,98236.19
2019-03-25T14:27:11.392Z,98227.90
2019-03-25T14:29:44.024Z,98235.69
2019-03-25T14:32:18.463Z,98225.46
2019-03-25T14:35:01.683Z,98236.01
2019-03-25T14:37:36.114Z,98229.11
2019-03-25T14:40:08.577Z,98229.66
2019-03-25T14:42:41.243Z,98228.02
2019-03-25T14:45:13.822Z,98227.14
2019-03-25T14:47:46.377Z,98227.78
2019-03-25T14:50:18.975Z,98233.31
2019-03-25T14:52:51.550Z,98235.19
2019-03-25T14:55:24.045Z,98237.12
2019-03-25T14:57:56.607Z,98233.80
2019-03-25T15:00:29.300Z,98236.30
2019-03-25T15:03:01.851Z,98239.66
2019-03-25T15:05:34.442Z,98241.27
2019-03-25T15:08:06.890Z,98248.61
2019-03-25T15:10:39.596Z,98257.13
2019-03-25T15:13:12.096Z,98261.38
2019-03-25T15:15:44.899Z,98252.21
2019-03-25T15:18:18.462Z,98252.59
2019-03-25T15:20:51.034Z,98253.59
2019-03-25T15:23:23.606Z,98254.48
2019-03-25T15:25:56.073Z,98257.47
2019-03-25T15:28:28.555Z,98254.42
2019-03-25T15:31:01.127Z,98251.33
2019-03-25T15:33:33.816Z,98254.44
2019-03-25T15:36:06.705Z,98259.80
2019-03-25T15:38:39.341Z,98262.16
2019-03-25T15:41:12.123Z,98250.34
2019-03-25T15:43:44.574Z,98258.73
2019-03-25T15:46:17.225Z,98257.09
2019-03-25T15:48:49.773Z,98254.33
2019-03-25T15:51:22.252Z,98263.11
2019-03-25T15:53:54.965Z,98261.73
2019-03-25T15:56:27.959Z,98261.34
2019-03-25T15:59:02.927Z,98260.69
2019-03-25T16:01:34.918Z,98253.38
2019-03-25T16:04:07.433Z,98253.59
2019-03-25T16:06:39.980Z,98249.75
2019-03-25T16:09:12.573Z,98254.05
2019-03-25T16:11:45.263Z,98256.20
2019-03-25T16:14:17.711Z,98251.66
2019-03-25T16:16:50.338Z,98251.72
2019-03-25T16:19:23.127Z,98255.69
2019-03-25T16:21:55.667Z,98258.01
2019-03-25T16:24:28.578Z,98257.01
2019-03-25T16:27:01.218Z,98258.22
2019-03-25T16:29:50.797Z,98256.92
2019-03-25T16:32:23.505Z,98254.98
2019-03-25T16:34:56.422Z,98258.72
2019-03-25T16:37:29.139Z,98257.42
2019-03-25T16:40:01.645Z,98261.88
2019-03-25T16:42:34.394Z,98263.64
2019-03-25T16:45:07.017Z,98263.23
2019-03-25T16:47:39.556Z,98263.28
2019-03-25T16:50:12.333Z,98262.22
2019-03-25T16:52:45.812Z,98268.67
2019-03-25T16:55:18.530Z,98263.98
2019-03-25T16:57:52.323Z,98258.52
2019-03-25T17:00:27.552Z,98267.11
2019-03-25T17:02:59.117Z,98262.73
2019-03-25T17:05:31.796Z,98264.49
2019-03-25T17:08:05.972Z,98269.45
2019-03-25T17:10:38.433Z,98266.42
2019-03-25T17:13:10.947Z,98265.05
2019-03-25T17:15:43.408Z,98272.00
2019-03-25T17:18:18.995Z,98277.28
2019-03-25T17:20:53.734Z,98277.84
2019-03-25T17:23:26.238Z,98275.08
2019-03-25T17:25:58.677Z,98271.26
2019-03-25T17:28:31.224Z,98266.89
2019-03-25T17:31:03.738Z,98271.81
2019-03-25T17:33:36.280Z,98269.64
2019-03-25T17:36:08.889Z,98272.14
2019-03-25T17:38:41.396Z,98277.15
2019-03-25T17:41:13.911Z,98280.73
2019-03-25T17:43:46.385Z,98280.55
2019-03-25T17:46:24.214Z,98280.55
2019-03-25T17:48:56.812Z,98281.42
2019-03-25T17:51:29.100Z,98277.79
2019-03-25T17:54:01.589Z,98275.91
2019-03-25T17:56:34.039Z,98275.91
2019-03-25T17:59:06.833Z,98278.11
2019-03-25T18:01:39.558Z,98276.78
2019-03-25T18:04:12.293Z,98276.45
2019-03-25T18:06:44.872Z,98270.13
2019-03-25T18:09:18.374Z,98275.16
2019-03-25T18:11:50.915Z,98277.66
2019-03-25T18:14:23.483Z,98277.92
2019-03-25T18:16:55.916Z,98288.45
2019-03-25T18:19:28.402Z,98281.05
2019-03-25T18:22:00.825Z,98286.56
2019-03-25T18:24:34.378Z,98283.30
2019-03-25T18:27:06.862Z,98287.67
2019-03-25T18:29:39.390Z,98280.27
2019-03-25T18:32:12.137Z,98280.59
2019-03-25T18:34:44.769Z,98277.79
2019-03-25T18:37:18.661Z,98270.39
2019-03-25T18:39:51.222Z,98273.65
2019-03-25T18:42:23.659Z,98278.84
2019-03-25T18:44:56.155Z,98278.53
2019-03-25T18:47:33.489Z,98277.15
2019-03-25T18:50:09.653Z,98271.27
2019-03-25T18:52:43.200Z,98273.70
2019-03-25T18:55:15.757Z,98271.45
2019-03-25T18:57:48.365Z,98274.07
2019-03-25T19:00:36.218Z,98278.52
2019-03-25T19:03:08.733Z,98277.33
2019-03-25T19:05:41.287Z,98282.11
2019-03-25T19:08:13.801Z,98274.52
2019-03-25T19:10:46.451Z,98275.84
2019-03-25T19:13:18.881Z,98276.85
2019-03-25T19:15:51.426Z,98274.83
2019-03-25T19:18:23.925Z,98293.45
2019-03-25T19:20:56.400Z,98285.79
2019-03-25T19:24:50.678Z,98289.93
2019-03-25T19:26:35.511Z,98284.86
2019-03-25T19:29:12.430Z,98290.56
2019-03-25T19:31:44.920Z,98286.69
2019-03-25T19:34:17.278Z,98287.98
2019-03-25T19:36:50.013Z,98290.56
2019-03-25T19:39:25.198Z,98287.75
2019-03-25T19:41:57.657Z,98281.78
2019-03-25T19:44:30.203Z,98283.56
2019-03-25T19:47:02.708Z,98282.73
2019-03-25T19:49:35.285Z,98280.48
2019-03-25T19:52:09.499Z,98279.84
2019-03-25T19:54:42.061Z,98276.90
2019-03-25T19:57:14.615Z,98285.67
2019-03-25T19:59:47.233Z,98275.57
2019-03-25T20:02:19.749Z,98275.57
2019-03-25T20:04:53.268Z,98276.39
2019-03-25T20:07:26.047Z,98280.53
2019-03-25T20:09:58.752Z,98284.67
2019-03-25T20:12:31.431Z,98283.16
2019-03-25T20:15:06.281Z,98272.90
2019-03-25T20:17:38.957Z,98269.36
2019-03-25T20:20:11.538Z,98277.45
2019-03-25T20:22:44.100Z,98274.64
2019-03-25T20:25:16.602Z,98274.45
2019-03-25T20:27:49.449Z,98271.87
2019-03-25T20:30:21.900Z,98266.09
2019-03-25T20:32:54.700Z,98262.45
2019-03-25T20:35:27.414Z,98262.96
2019-03-25T20:37:59.941Z,98258.31
2019-03-25T20:40:32.682Z,98255.33
2019-03-25T20:43:05.251Z,98257.26
2019-03-25T20:45:37.791Z,98257.88
2019-03-25T20:48:10.553Z,98254.95
2019-03-25T20:50:43.036Z,98261.84
2019-03-25T20:53:15.523Z,98260.70
2019-03-25T20:55:48.280Z,98264.66
2019-03-25T20:58:20.734Z,98265.72
2019-03-25T21:00:54.558Z,98272.88
2019-03-25T21:03:27.240Z,98268.87
2019-03-25T21:05:59.792Z,98268.60
2019-03-25T21:08:32.250Z,98276.38
2019-03-25T21:11:04.818Z,98275.64
2019-03-25T21:13:37.323Z,98262.84
2019-03-25T21:16:09.882Z,98263.34
2019-03-25T21:18:42.577Z,98265.86
2019-03-25T21:21:15.396Z,98264.53
2019-03-25T21:23:47.938Z,98262.04
2019-03-25T21:26:20.546Z,98259.02
2019-03-25T21:28:53.226Z,98257.95
2019-03-25T21:31:25.613Z,98265.17
2019-03-25T21:33:58.131Z,98258.28
2019-03-25T21:36:30.806Z,98251.38
2019-03-25T21:39:04.200Z,98258.84
2019-03-25T21:41:36.723Z,98260.48
2019-03-25T21:44:09.246Z,98258.84
2019-03-25T21:46:41.825Z,98260.53
2019-03-25T21:49:14.306Z,98253.45
2019-03-25T21:51:46.844Z,98255.58
2019-03-25T21:54:19.502Z,98253.19
2019-03-25T21:56:52.098Z,98243.25
2019-03-25T21:59:24.832Z,98245.18
2019-03-25T22:01:57.446Z,98244.91
2019-03-25T22:04:30.023Z,98249.31
2019-03-25T22:07:02.601Z,98238.28
2019-03-25T22:09:35.135Z,98239.89
2019-03-25T22:12:07.694Z,98240.48
2019-03-25T22:14:40.208Z,98236.02
2019-03-25T22:17:12.778Z,98231.94
2019-03-25T22:19:45.306Z,98228.86
2019-03-25T22:22:18.011Z,98224.99
2019-03-25T22:24:50.615Z,98223.72
2019-03-25T22:27:23.175Z,98220.35
2019-03-25T22:29:55.855Z,98220.59
2019-03-25T22:32:28.414Z,98215.39
2019-03-25T22:35:00.735Z,98217.41
2019-03-25T22:37:33.288Z,98219.58
2019-03-25T22:40:07.904Z,98209.64
2019-03-25T22:42:40.815Z,98210.84
2019-03-25T22:45:13.936Z,98204.67
2019-03-25T22:47:46.386Z,98198.66
2019-03-25T22:50:27.505Z,98201.66
2019-03-25T22:53:00.094Z,98200.03
2019-03-25T22:55:32.606Z,98203.17
2019-03-25T22:58:05.114Z,98196.55
2019-03-25T23:00:45.321Z,98200.09
2019-03-25T23:03:17.876Z,98201.18
2019-03-25T23:05:50.495Z,98195.66
2019-03-25T23:08:22.862Z,98190.70
2019-03-25T23:10:55.300Z,98189.15
2019-03-25T23:13:27.851Z,98186.39
2019-03-25T23:16:00.359Z,98187.13
2019-03-25T23:18:32.789Z,98178.61
2019-03-25T23:21:05.261Z,98177.23
2019-03-25T23:23:37.762Z,98175.86
2019-03-25T23:26:10.277Z,98168.95
2019-03-25T23:28:42.773Z,98173.33
2019-03-25T23:31:15.352Z,98175.27
2019-03-25T23:33:52.515Z,98170.77
2019-03-25T23:36:22.176Z,98166.20
2019-03-25T23:38:54.738Z,98163.94
2019-03-25T23:41:27.185Z,98166.20
2019-03-25T23:43:59.831Z,98159.30
2019-03-25T23:46:32.403Z,98161.47
2019-03-25T23:49:04.851Z,98163.35
2019-03-25T23:51:37.366Z,98167.81
2019-03-25T23:54:13.352Z,98166.11
2019-03-25T23:56:45.811Z,98162.85
2019-03-25T23:59:18.360Z,98158.60
